»·PEaware :: N790DL KSJC-KAUN

N790DL :: KSJC-KAUN

FLIGHT INFORMATION

Flight Status: Arrived
Operator: Privately registered:
United States
More flights under this callsign
Pilot: Doug H. (19585)
Aircraft: BEECH AIRCRAFT DEBONAIR BONANZA
(BE33)
More flights by this aircraft type
Origin: KSJC Mineta San Jose Intl
United States
Destination: KAUN Auburn Mun
United States
More flights between these airports :: More routes between these airports
Route: +VFR
File this flight plan on PilotEdge
Remarks:
Altitude:
(Current/Filed)
0ft
Speed:
(Current/Filed)
0kts
Departed: 05-Aug-19 05:39 PM
Arrived: 05-Aug-19 06:35 PM
Distance/Time
Traveled:
103nm/0:56
Distance/Time
To Go:
Arrived

Flight Plot

Page will automatically refresh every two minutes.

Flight plan parsing failed; only flown route is shown


Map Options




Map Legend


Flown Route
Filed Route
Departure Airport
Arrival Airport
Navaid (VOR, NDB)
Fix

Horizontal Profiles

Position Reports

Time Latitude Longitude Heading Altitude Ground
Speed
05-Aug-19 17:37 37.419978 -121.961955 17 2148ft 110kts
05-Aug-19 17:38 37.447157 -121.946168 18 3051ft 95kts
05-Aug-19 17:39 37.460336 -121.938910 17 3348ft 104kts
05-Aug-19 17:40 37.460336 -121.938910 17 3348ft 104kts
05-Aug-19 17:41 37.460336 -121.938910 17 3348ft 104kts
05-Aug-19 17:42 37.460336 -121.938910 17 3348ft 104kts
05-Aug-19 17:43 37.460336 -121.938910 17 3348ft 104kts
05-Aug-19 17:44 37.460336 -121.938910 17 3348ft 104kts
05-Aug-19 17:45 37.460336 -121.938910 17 3348ft 104kts
05-Aug-19 17:46 37.460336 -121.938910 17 3348ft 104kts
05-Aug-19 17:47 37.460336 -121.938910 17 3348ft 104kts
05-Aug-19 17:48 37.460336 -121.938910 17 3348ft 104kts
05-Aug-19 17:49 37.460336 -121.938910 17 3348ft 104kts
05-Aug-19 17:50 37.460336 -121.938910 17 3348ft 104kts
05-Aug-19 17:51 37.460336 -121.938910 17 3348ft 104kts
05-Aug-19 17:52 37.460336 -121.938910 17 3348ft 104kts
05-Aug-19 17:53 37.460336 -121.938910 17 3348ft 104kts
05-Aug-19 17:54 37.464909 -121.936618 14 3516ft 99kts
05-Aug-19 17:55 37.493930 -121.921537 17 3876ft 132kts
05-Aug-19 17:56 37.531444 -121.901594 21 3936ft 155kts
05-Aug-19 17:57 37.571974 -121.875996 23 3905ft 160kts
05-Aug-19 17:58 37.612458 -121.849365 23 3784ft 169kts
05-Aug-19 17:59 37.655030 -121.824100 21 3681ft 169kts
05-Aug-19 18:00 37.692196 -121.802669 22 4489ft 132kts
05-Aug-19 18:01 37.724300 -121.782651 24 5147ft 121kts
05-Aug-19 18:02 37.755237 -121.761697 17 5649ft 125kts
05-Aug-19 18:03 37.786593 -121.742773 25 6266ft 122kts
05-Aug-19 18:04 37.817405 -121.725011 20 6793ft 124kts
05-Aug-19 18:05 37.848198 -121.708767 20 7328ft 119kts
05-Aug-19 18:06 37.880425 -121.690270 21 7526ft 143kts
05-Aug-19 18:07 37.917504 -121.665817 24 7634ft 157kts
05-Aug-19 18:08 37.958279 -121.641273 12 7696ft 162kts
05-Aug-19 18:09 38.002566 -121.621723 20 7566ft 175kts
05-Aug-19 18:10 38.047574 -121.597281 21 7527ft 175kts
05-Aug-19 18:11 38.092047 -121.572428 21 7514ft 174kts
05-Aug-19 18:12 38.136396 -121.547533 22 7513ft 173kts
05-Aug-19 18:13 38.180233 -121.522891 22 7521ft 172kts
05-Aug-19 18:14 38.224151 -121.498167 22 7520ft 172kts
05-Aug-19 18:15 38.267975 -121.473442 22 7519ft 172kts
05-Aug-19 18:16 38.311934 -121.448603 22 7518ft 172kts
05-Aug-19 18:17 38.337547 -121.434120 22 7518ft 172kts
05-Aug-19 18:18 38.380034 -121.410068 22 7517ft 172kts
05-Aug-19 18:19 38.423906 -121.385208 22 7516ft 172kts
05-Aug-19 18:20 38.468574 -121.359797 22 7211ft 178kts
05-Aug-19 18:21 38.512897 -121.334662 23 6718ft 176kts
05-Aug-19 18:22 38.557873 -121.309078 23 6216ft 176kts
05-Aug-19 18:23 38.602558 -121.283615 22 5715ft 175kts
05-Aug-19 18:24 38.646763 -121.258403 22 5215ft 174kts
05-Aug-19 18:25 38.690852 -121.233222 22 4712ft 172kts
05-Aug-19 18:26 38.734538 -121.208237 22 4212ft 171kts
05-Aug-19 18:27 38.777904 -121.183411 22 3713ft 170kts
05-Aug-19 18:28 38.821512 -121.161702 12 3245ft 165kts
05-Aug-19 18:29 38.865792 -121.148368 12 2819ft 165kts
05-Aug-19 18:30 38.908282 -121.144521 0 2765ft 113kts
05-Aug-19 18:31 38.937373 -121.142048 5 2139ft 101kts
05-Aug-19 18:32 38.951712 -121.120863 84 1933ft 90kts
05-Aug-19 18:33 38.954029 -121.091221 83 1600ft 78kts
05-Aug-19 18:34 38.954130 -121.079133 173 1539ft 10kts
05-Aug-19 18:35 38.861183 -121.149788 13 2895ft 163kts
05-Aug-19 18:36 38.954475 -121.085994 84 1541ft 67kts

Navigation Log

Ident Type
Flight plan parsing failed, navigation log unavailable